sensor_id;sensor_type;location;lat;lon;timestamp;P1;durP1;ratioP1;P2;durP2;ratioP2
31402;SDS011;18039;52.188;21.024;2022-10-04T00:09:45;12.55;;;7.50;;
31402;SDS011;18039;52.188;21.024;2022-10-04T00:12:21;18.48;;;7.20;;
31402;SDS011;18039;52.188;21.024;2022-10-04T00:14:50;13.40;;;6.97;;
31402;SDS011;18039;52.188;21.024;2022-10-04T00:17:22;10.50;;;7.38;;
31402;SDS011;18039;52.188;21.024;2022-10-04T00:19:52;15.50;;;7.55;;
31402;SDS011;18039;52.188;21.024;2022-10-04T00:22:22;13.68;;;7.43;;
31402;SDS011;18039;52.188;21.024;2022-10-04T00:27:32;12.23;;;7.20;;
31402;SDS011;18039;52.188;21.024;2022-10-04T00:34:55;16.48;;;7.75;;
31402;SDS011;18039;52.188;21.024;2022-10-04T00:37:24;13.82;;;7.47;;
31402;SDS011;18039;52.188;21.024;2022-10-04T00:40:04;15.70;;;8.95;;
31402;SDS011;18039;52.188;21.024;2022-10-04T00:45:23;19.40;;;8.18;;
31402;SDS011;18039;52.188;21.024;2022-10-04T00:51:12;13.88;;;7.28;;
31402;SDS011;18039;52.188;21.024;2022-10-04T00:54:13;16.73;;;7.80;;
31402;SDS011;18039;52.188;21.024;2022-10-04T00:56:44;17.10;;;7.35;;
31402;SDS011;18039;52.188;21.024;2022-10-04T01:04:39;14.93;;;7.45;;
31402;SDS011;18039;52.188;21.024;2022-10-04T01:07:10;16.77;;;8.43;;
31402;SDS011;18039;52.188;21.024;2022-10-04T01:09:45;17.27;;;6.85;;
31402;SDS011;18039;52.188;21.024;2022-10-04T01:12:21;23.55;;;7.15;;
31402;SDS011;18039;52.188;21.024;2022-10-04T01:14:54;18.13;;;7.15;;
31402;SDS011;18039;52.188;21.024;2022-10-04T01:17:31;14.30;;;5.88;;
31402;SDS011;18039;52.188;21.024;2022-10-04T01:19:57;19.60;;;6.60;;
31402;SDS011;18039;52.188;21.024;2022-10-04T01:22:41;12.88;;;5.82;;
31402;SDS011;18039;52.188;21.024;2022-10-04T01:25:10;21.17;;;6.40;;
31402;SDS011;18039;52.188;21.024;2022-10-04T01:28:14;11.95;;;5.50;;
31402;SDS011;18039;52.188;21.024;2022-10-04T01:30:42;18.60;;;6.13;;
31402;SDS011;18039;52.188;21.024;2022-10-04T01:33:10;14.45;;;5.43;;
31402;SDS011;18039;52.188;21.024;2022-10-04T01:35:38;13.18;;;5.38;;
31402;SDS011;18039;52.188;21.024;2022-10-04T01:38:05;15.68;;;5.80;;
31402;SDS011;18039;52.188;21.024;2022-10-04T01:40:37;16.02;;;6.03;;
31402;SDS011;18039;52.188;21.024;2022-10-04T01:43:13;14.48;;;4.88;;
31402;SDS011;18039;52.188;21.024;2022-10-04T01:45:50;13.18;;;7.18;;
31402;SDS011;18039;52.188;21.024;2022-10-04T01:48:24;10.15;;;4.88;;
31402;SDS011;18039;52.188;21.024;2022-10-04T01:51:00;12.60;;;4.95;;
31402;SDS011;18039;52.188;21.024;2022-10-04T01:53:34;14.75;;;6.13;;
31402;SDS011;18039;52.188;21.024;2022-10-04T01:56:14;16.27;;;5.47;;
31402;SDS011;18039;52.188;21.024;2022-10-04T01:58:46;8.13;;;4.38;;
31402;SDS011;18039;52.188;21.024;2022-10-04T02:01:26;10.93;;;4.53;;
31402;SDS011;18039;52.188;21.024;2022-10-04T02:03:59;9.23;;;4.97;;
31402;SDS011;18039;52.188;21.024;2022-10-04T02:06:49;13.05;;;4.95;;
31402;SDS011;18039;52.188;21.024;2022-10-04T02:09:22;9.73;;;4.43;;
31402;SDS011;18039;52.188;21.024;2022-10-04T02:11:52;12.68;;;4.35;;
31402;SDS011;18039;52.188;21.024;2022-10-04T02:14:23;16.52;;;5.05;;
31402;SDS011;18039;52.188;21.024;2022-10-04T02:16:52;12.77;;;4.70;;
31402;SDS011;18039;52.188;21.024;2022-10-04T02:19:24;11.63;;;4.57;;
31402;SDS011;18039;52.188;21.024;2022-10-04T02:21:57;10.50;;;4.35;;
31402;SDS011;18039;52.188;21.024;2022-10-04T02:24:29;11.30;;;3.87;;
31402;SDS011;18039;52.188;21.024;2022-10-04T02:26:59;13.65;;;4.78;;
31402;SDS011;18039;52.188;21.024;2022-10-04T02:29:26;8.77;;;4.63;;
31402;SDS011;18039;52.188;21.024;2022-10-04T02:31:53;10.27;;;4.00;;
31402;SDS011;18039;52.188;21.024;2022-10-04T02:34:39;11.65;;;4.03;;
31402;SDS011;18039;52.188;21.024;2022-10-04T02:37:06;10.35;;;4.45;;
31402;SDS011;18039;52.188;21.024;2022-10-04T02:39:39;7.20;;;4.32;;
31402;SDS011;18039;52.188;21.024;2022-10-04T02:42:11;7.15;;;3.70;;
31402;SDS011;18039;52.188;21.024;2022-10-04T02:45:10;11.52;;;4.25;;
31402;SDS011;18039;52.188;21.024;2022-10-04T02:47:56;10.02;;;3.95;;
31402;SDS011;18039;52.188;21.024;2022-10-04T02:50:35;12.60;;;3.95;;
31402;SDS011;18039;52.188;21.024;2022-10-04T02:56:00;9.10;;;3.90;;
31402;SDS011;18039;52.188;21.024;2022-10-04T02:58:28;6.30;;;3.22;;
31402;SDS011;18039;52.188;21.024;2022-10-04T03:00:58;9.57;;;3.85;;
31402;SDS011;18039;52.188;21.024;2022-10-04T03:03:29;6.72;;;3.10;;
31402;SDS011;18039;52.188;21.024;2022-10-04T03:08:28;5.22;;;3.35;;
31402;SDS011;18039;52.188;21.024;2022-10-04T03:10:58;8.60;;;3.30;;
31402;SDS011;18039;52.188;21.024;2022-10-04T03:13:27;5.70;;;3.05;;
31402;SDS011;18039;52.188;21.024;2022-10-04T03:15:54;5.32;;;2.97;;
31402;SDS011;18039;52.188;21.024;2022-10-04T03:18:21;6.13;;;3.35;;
31402;SDS011;18039;52.188;21.024;2022-10-04T03:20:48;5.32;;;3.85;;
31402;SDS011;18039;52.188;21.024;2022-10-04T03:23:16;6.68;;;4.60;;
31402;SDS011;18039;52.188;21.024;2022-10-04T03:25:56;8.38;;;4.60;;
31402;SDS011;18039;52.188;21.024;2022-10-04T03:28:29;8.63;;;5.03;;
31402;SDS011;18039;52.188;21.024;2022-10-04T03:30:56;9.82;;;4.90;;
31402;SDS011;18039;52.188;21.024;2022-10-04T03:33:24;10.38;;;5.82;;
31402;SDS011;18039;52.188;21.024;2022-10-04T03:35:57;9.63;;;5.60;;
31402;SDS011;18039;52.188;21.024;2022-10-04T03:38:26;13.65;;;5.65;;
31402;SDS011;18039;52.188;21.024;2022-10-04T03:40:55;10.90;;;5.25;;
31402;SDS011;18039;52.188;21.024;2022-10-04T03:43:28;8.85;;;5.32;;
31402;SDS011;18039;52.188;21.024;2022-10-04T03:45:57;13.85;;;6.07;;
31402;SDS011;18039;52.188;21.024;2022-10-04T03:48:33;10.90;;;6.03;;
31402;SDS011;18039;52.188;21.024;2022-10-04T03:51:04;10.35;;;6.40;;
31402;SDS011;18039;52.188;21.024;2022-10-04T03:53:33;14.25;;;6.63;;
31402;SDS011;18039;52.188;21.024;2022-10-04T03:56:15;9.48;;;5.75;;
31402;SDS011;18039;52.188;21.024;2022-10-04T03:58:46;12.00;;;6.32;;
31402;SDS011;18039;52.188;21.024;2022-10-04T04:07:01;11.70;;;5.95;;
31402;SDS011;18039;52.188;21.024;2022-10-04T04:12:34;12.57;;;5.25;;
31402;SDS011;18039;52.188;21.024;2022-10-04T04:15:10;11.90;;;5.40;;
31402;SDS011;18039;52.188;21.024;2022-10-04T04:17:39;14.95;;;5.13;;
31402;SDS011;18039;52.188;21.024;2022-10-04T04:20:17;10.93;;;5.75;;
31402;SDS011;18039;52.188;21.024;2022-10-04T04:25:42;8.60;;;4.88;;
31402;SDS011;18039;52.188;21.024;2022-10-04T04:28:33;11.02;;;5.35;;
31402;SDS011;18039;52.188;21.024;2022-10-04T04:31:17;9.93;;;5.13;;
31402;SDS011;18039;52.188;21.024;2022-10-04T04:33:55;11.05;;;4.60;;
31402;SDS011;18039;52.188;21.024;2022-10-04T04:36:28;8.45;;;4.63;;
31402;SDS011;18039;52.188;21.024;2022-10-04T04:39:07;9.32;;;5.40;;
31402;SDS011;18039;52.188;21.024;2022-10-04T04:44:46;15.43;;;5.50;;
31402;SDS011;18039;52.188;21.024;2022-10-04T04:47:22;8.38;;;5.07;;
31402;SDS011;18039;52.188;21.024;2022-10-04T04:50:06;11.98;;;6.22;;
31402;SDS011;18039;52.188;21.024;2022-10-04T04:52:42;10.82;;;5.80;;
31402;SDS011;18039;52.188;21.024;2022-10-04T05:00:18;8.95;;;5.05;;
31402;SDS011;18039;52.188;21.024;2022-10-04T05:02:50;9.70;;;5.00;;
31402;SDS011;18039;52.188;21.024;2022-10-04T05:05:28;10.05;;;5.00;;
31402;SDS011;18039;52.188;21.024;2022-10-04T05:10:35;9.20;;;4.70;;
31402;SDS011;18039;52.188;21.024;2022-10-04T05:13:07;8.35;;;4.60;;
31402;SDS011;18039;52.188;21.024;2022-10-04T05:15:37;10.40;;;5.43;;
31402;SDS011;18039;52.188;21.024;2022-10-04T05:18:39;8.88;;;4.53;;
31402;SDS011;18039;52.188;21.024;2022-10-04T05:21:03;13.05;;;5.20;;
31402;SDS011;18039;52.188;21.024;2022-10-04T05:23:34;7.20;;;4.70;;
31402;SDS011;18039;52.188;21.024;2022-10-04T05:26:01;11.35;;;3.78;;
31402;SDS011;18039;52.188;21.024;2022-10-04T05:28:30;10.63;;;4.05;;
31402;SDS011;18039;52.188;21.024;2022-10-04T05:33:45;8.00;;;4.30;;
31402;SDS011;18039;52.188;21.024;2022-10-04T05:38:50;10.13;;;4.00;;
31402;SDS011;18039;52.188;21.024;2022-10-04T05:41:36;10.55;;;3.75;;
31402;SDS011;18039;52.188;21.024;2022-10-04T05:46:53;7.57;;;3.55;;
31402;SDS011;18039;52.188;21.024;2022-10-04T05:49:24;9.03;;;3.90;;
31402;SDS011;18039;52.188;21.024;2022-10-04T05:52:02;8.38;;;3.80;;
31402;SDS011;18039;52.188;21.024;2022-10-04T05:54:38;8.80;;;3.50;;
31402;SDS011;18039;52.188;21.024;2022-10-04T06:00:03;12.63;;;3.75;;
31402;SDS011;18039;52.188;21.024;2022-10-04T06:14:34;4.50;;;2.65;;
31402;SDS011;18039;52.188;21.024;2022-10-04T06:22:59;6.30;;;2.80;;
31402;SDS011;18039;52.188;21.024;2022-10-04T06:25:31;5.32;;;2.78;;
31402;SDS011;18039;52.188;21.024;2022-10-04T06:39:45;5.95;;;2.35;;
31402;SDS011;18039;52.188;21.024;2022-10-04T07:02:41;6.97;;;3.25;;
31402;SDS011;18039;52.188;21.024;2022-10-04T07:05:16;7.88;;;2.75;;
31402;SDS011;18039;52.188;21.024;2022-10-04T07:08:12;5.82;;;2.83;;
31402;SDS011;18039;52.188;21.024;2022-10-04T07:10:58;7.45;;;3.05;;
31402;SDS011;18039;52.188;21.024;2022-10-04T07:13:55;6.88;;;2.72;;
31402;SDS011;18039;52.188;21.024;2022-10-04T07:19:33;5.00;;;3.20;;
31402;SDS011;18039;52.188;21.024;2022-10-04T07:27:20;9.23;;;3.30;;
31402;SDS011;18039;52.188;21.024;2022-10-04T07:29:54;8.85;;;4.22;;
31402;SDS011;18039;52.188;21.024;2022-10-04T07:32:27;7.10;;;3.15;;
31402;SDS011;18039;52.188;21.024;2022-10-04T07:42:25;4.90;;;2.50;;
31402;SDS011;18039;52.188;21.024;2022-10-04T07:47:35;6.75;;;2.88;;
31402;SDS011;18039;52.188;21.024;2022-10-04T07:50:14;9.00;;;2.90;;
31402;SDS011;18039;52.188;21.024;2022-10-04T07:55:27;6.03;;;2.47;;
31402;SDS011;18039;52.188;21.024;2022-10-04T07:58:06;6.80;;;2.80;;
31402;SDS011;18039;52.188;21.024;2022-10-04T08:23:23;6.28;;;2.20;;
31402;SDS011;18039;52.188;21.024;2022-10-04T08:43:22;4.40;;;2.10;;
31402;SDS011;18039;52.188;21.024;2022-10-04T09:00:15;3.80;;;1.70;;
31402;SDS011;18039;52.188;21.024;2022-10-04T09:03:10;4.25;;;1.70;;
31402;SDS011;18039;52.188;21.024;2022-10-04T09:20:00;4.63;;;1.38;;
31402;SDS011;18039;52.188;21.024;2022-10-04T09:23:11;4.30;;;1.40;;
31402;SDS011;18039;52.188;21.024;2022-10-04T09:40:33;1.60;;;1.45;;
31402;SDS011;18039;52.188;21.024;2022-10-04T09:46:16;1.98;;;1.10;;
31402;SDS011;18039;52.188;21.024;2022-10-04T09:54:40;3.80;;;1.50;;
31402;SDS011;18039;52.188;21.024;2022-10-04T10:14:29;1.88;;;1.27;;
31402;SDS011;18039;52.188;21.024;2022-10-04T10:17:10;3.70;;;1.13;;
31402;SDS011;18039;52.188;21.024;2022-10-04T10:37:08;3.33;;;1.45;;
31402;SDS011;18039;52.188;21.024;2022-10-04T10:45:35;2.55;;;1.02;;
31402;SDS011;18039;52.188;21.024;2022-10-04T11:16:26;4.43;;;1.23;;
31402;SDS011;18039;52.188;21.024;2022-10-04T11:24:43;1.50;;;1.10;;
31402;SDS011;18039;52.188;21.024;2022-10-04T11:41:47;3.58;;;1.33;;
31402;SDS011;18039;52.188;21.024;2022-10-04T12:07:24;2.10;;;1.48;;
31402;SDS011;18039;52.188;21.024;2022-10-04T12:16:03;3.47;;;1.50;;
31402;SDS011;18039;52.188;21.024;2022-10-04T12:27:44;3.97;;;1.20;;
31402;SDS011;18039;52.188;21.024;2022-10-04T12:33:03;3.28;;;1.63;;
31402;SDS011;18039;52.188;21.024;2022-10-04T12:36:16;2.55;;;1.40;;
31402;SDS011;18039;52.188;21.024;2022-10-04T12:47:38;2.70;;;1.35;;
31402;SDS011;18039;52.188;21.024;2022-10-04T12:53:17;5.85;;;1.20;;
31402;SDS011;18039;52.188;21.024;2022-10-04T12:58:42;2.38;;;1.42;;
31402;SDS011;18039;52.188;21.024;2022-10-04T13:01:31;3.45;;;1.70;;
31402;SDS011;18039;52.188;21.024;2022-10-04T13:04:22;4.82;;;1.33;;
31402;SDS011;18039;52.188;21.024;2022-10-04T13:06:55;2.72;;;1.27;;
31402;SDS011;18039;52.188;21.024;2022-10-04T13:09:40;2.55;;;1.50;;
31402;SDS011;18039;52.188;21.024;2022-10-04T13:12:34;3.05;;;1.30;;
31402;SDS011;18039;52.188;21.024;2022-10-04T13:15:36;4.57;;;1.95;;
31402;SDS011;18039;52.188;21.024;2022-10-04T13:29:30;3.88;;;1.55;;
31402;SDS011;18039;52.188;21.024;2022-10-04T13:32:07;3.40;;;1.38;;
31402;SDS011;18039;52.188;21.024;2022-10-04T13:43:39;2.83;;;1.30;;
31402;SDS011;18039;52.188;21.024;2022-10-04T13:49:06;4.55;;;1.40;;
31402;SDS011;18039;52.188;21.024;2022-10-04T13:54:42;6.07;;;1.40;;
31402;SDS011;18039;52.188;21.024;2022-10-04T13:57:56;14.40;;;1.90;;
31402;SDS011;18039;52.188;21.024;2022-10-04T14:09:26;2.38;;;1.35;;
31402;SDS011;18039;52.188;21.024;2022-10-04T14:12:21;2.17;;;1.05;;
31402;SDS011;18039;52.188;21.024;2022-10-04T14:18:10;2.60;;;1.40;;
31402;SDS011;18039;52.188;21.024;2022-10-04T14:24:41;3.42;;;1.83;;
31402;SDS011;18039;52.188;21.024;2022-10-04T14:30:40;2.70;;;1.15;;
31402;SDS011;18039;52.188;21.024;2022-10-04T14:33:29;4.53;;;1.77;;
31402;SDS011;18039;52.188;21.024;2022-10-04T14:39:00;4.70;;;1.77;;
31402;SDS011;18039;52.188;21.024;2022-10-04T14:41:57;5.15;;;1.40;;
31402;SDS011;18039;52.188;21.024;2022-10-04T14:44:34;5.95;;;1.90;;
31402;SDS011;18039;52.188;21.024;2022-10-04T14:49:55;2.90;;;1.50;;
31402;SDS011;18039;52.188;21.024;2022-10-04T15:01:27;5.65;;;3.03;;
31402;SDS011;18039;52.188;21.024;2022-10-04T15:06:48;2.88;;;1.60;;
31402;SDS011;18039;52.188;21.024;2022-10-04T15:09:22;4.22;;;1.63;;
31402;SDS011;18039;52.188;21.024;2022-10-04T15:12:00;6.05;;;2.17;;
31402;SDS011;18039;52.188;21.024;2022-10-04T15:22:55;3.72;;;1.85;;
31402;SDS011;18039;52.188;21.024;2022-10-04T15:25:38;5.32;;;1.50;;
31402;SDS011;18039;52.188;21.024;2022-10-04T15:28:25;5.60;;;2.17;;
31402;SDS011;18039;52.188;21.024;2022-10-04T15:34:00;5.38;;;2.10;;
31402;SDS011;18039;52.188;21.024;2022-10-04T15:37:02;8.80;;;2.03;;
31402;SDS011;18039;52.188;21.024;2022-10-04T15:48:22;6.20;;;2.17;;
31402;SDS011;18039;52.188;21.024;2022-10-04T15:53:37;7.43;;;3.33;;
31402;SDS011;18039;52.188;21.024;2022-10-04T16:10:29;7.25;;;2.28;;
31402;SDS011;18039;52.188;21.024;2022-10-04T16:19:21;3.58;;;2.00;;
31402;SDS011;18039;52.188;21.024;2022-10-04T16:24:56;5.40;;;2.67;;
31402;SDS011;18039;52.188;21.024;2022-10-04T16:29:56;4.78;;;2.15;;
31402;SDS011;18039;52.188;21.024;2022-10-04T16:35:32;6.78;;;2.70;;
31402;SDS011;18039;52.188;21.024;2022-10-04T16:43:33;4.80;;;2.63;;
31402;SDS011;18039;52.188;21.024;2022-10-04T16:46:08;5.95;;;3.22;;
31402;SDS011;18039;52.188;21.024;2022-10-04T16:57:23;8.23;;;3.80;;
31402;SDS011;18039;52.188;21.024;2022-10-04T16:59:59;7.80;;;3.78;;
31402;SDS011;18039;52.188;21.024;2022-10-04T17:03:09;10.75;;;4.00;;
31402;SDS011;18039;52.188;21.024;2022-10-04T17:05:57;10.45;;;4.53;;
31402;SDS011;18039;52.188;21.024;2022-10-04T17:08:51;11.10;;;4.70;;
31402;SDS011;18039;52.188;21.024;2022-10-04T17:11:57;10.13;;;4.38;;
31402;SDS011;18039;52.188;21.024;2022-10-04T17:14:42;12.35;;;4.97;;
31402;SDS011;18039;52.188;21.024;2022-10-04T17:17:34;11.20;;;4.95;;
31402;SDS011;18039;52.188;21.024;2022-10-04T17:23:15;10.40;;;5.13;;
31402;SDS011;18039;52.188;21.024;2022-10-04T17:28:28;13.25;;;5.28;;
31402;SDS011;18039;52.188;21.024;2022-10-04T17:31:07;13.68;;;5.43;;
31402;SDS011;18039;52.188;21.024;2022-10-04T17:33:54;9.50;;;5.03;;
31402;SDS011;18039;52.188;21.024;2022-10-04T17:36:50;11.20;;;5.43;;
31402;SDS011;18039;52.188;21.024;2022-10-04T17:39:37;8.95;;;4.80;;
31402;SDS011;18039;52.188;21.024;2022-10-04T17:52:58;8.57;;;4.80;;
31402;SDS011;18039;52.188;21.024;2022-10-04T17:55:54;10.93;;;5.15;;
31402;SDS011;18039;52.188;21.024;2022-10-04T18:01:16;11.98;;;5.47;;
31402;SDS011;18039;52.188;21.024;2022-10-04T18:03:46;14.48;;;6.18;;
31402;SDS011;18039;52.188;21.024;2022-10-04T18:09:04;9.93;;;5.82;;
31402;SDS011;18039;52.188;21.024;2022-10-04T18:11:47;10.93;;;6.00;;
31402;SDS011;18039;52.188;21.024;2022-10-04T18:16:58;15.07;;;5.53;;
31402;SDS011;18039;52.188;21.024;2022-10-04T18:22:23;12.02;;;5.95;;
31402;SDS011;18039;52.188;21.024;2022-10-04T18:25:29;14.75;;;6.18;;
31402;SDS011;18039;52.188;21.024;2022-10-04T18:27:59;10.40;;;5.28;;
31402;SDS011;18039;52.188;21.024;2022-10-04T18:33:15;15.00;;;6.18;;
31402;SDS011;18039;52.188;21.024;2022-10-04T18:35:53;17.98;;;5.75;;
31402;SDS011;18039;52.188;21.024;2022-10-04T18:38:32;11.10;;;6.20;;
31402;SDS011;18039;52.188;21.024;2022-10-04T18:46:20;11.63;;;6.18;;
31402;SDS011;18039;52.188;21.024;2022-10-04T18:49:42;17.05;;;7.97;;
31402;SDS011;18039;52.188;21.024;2022-10-04T18:54:45;13.80;;;6.53;;
31402;SDS011;18039;52.188;21.024;2022-10-04T18:57:30;10.57;;;5.72;;
31402;SDS011;18039;52.188;21.024;2022-10-04T19:00:31;13.23;;;6.03;;
31402;SDS011;18039;52.188;21.024;2022-10-04T19:06:04;14.13;;;6.53;;
31402;SDS011;18039;52.188;21.024;2022-10-04T19:09:06;17.60;;;6.68;;
31402;SDS011;18039;52.188;21.024;2022-10-04T19:12:03;12.07;;;6.68;;
31402;SDS011;18039;52.188;21.024;2022-10-04T19:17:32;15.68;;;6.60;;
31402;SDS011;18039;52.188;21.024;2022-10-04T19:20:10;11.73;;;5.80;;
31402;SDS011;18039;52.188;21.024;2022-10-04T19:23:04;16.23;;;6.32;;
31402;SDS011;18039;52.188;21.024;2022-10-04T19:25:44;17.63;;;7.40;;
31402;SDS011;18039;52.188;21.024;2022-10-04T19:28:33;11.82;;;6.40;;
31402;SDS011;18039;52.188;21.024;2022-10-04T19:37:05;18.65;;;6.82;;
31402;SDS011;18039;52.188;21.024;2022-10-04T19:42:13;14.95;;;6.28;;
31402;SDS011;18039;52.188;21.024;2022-10-04T19:52:48;13.85;;;6.40;;
31402;SDS011;18039;52.188;21.024;2022-10-04T20:00:56;16.60;;;7.70;;
31402;SDS011;18039;52.188;21.024;2022-10-04T20:03:23;13.65;;;6.72;;
31402;SDS011;18039;52.188;21.024;2022-10-04T20:05:51;16.75;;;7.30;;
31402;SDS011;18039;52.188;21.024;2022-10-04T20:19:19;15.05;;;7.15;;
31402;SDS011;18039;52.188;21.024;2022-10-04T20:27:03;16.65;;;7.70;;
31402;SDS011;18039;52.188;21.024;2022-10-04T20:35:03;14.93;;;6.85;;
31402;SDS011;18039;52.188;21.024;2022-10-04T20:45:43;18.45;;;7.03;;
31402;SDS011;18039;52.188;21.024;2022-10-04T20:48:33;13.40;;;6.43;;
31402;SDS011;18039;52.188;21.024;2022-10-04T20:51:06;14.40;;;7.40;;
31402;SDS011;18039;52.188;21.024;2022-10-04T20:53:40;15.95;;;8.27;;
31402;SDS011;18039;52.188;21.024;2022-10-04T20:56:28;15.50;;;6.38;;
31402;SDS011;18039;52.188;21.024;2022-10-04T20:59:00;15.77;;;6.97;;
31402;SDS011;18039;52.188;21.024;2022-10-04T21:01:29;12.50;;;6.82;;
31402;SDS011;18039;52.188;21.024;2022-10-04T21:06:57;14.88;;;7.45;;
31402;SDS011;18039;52.188;21.024;2022-10-04T21:09:32;16.58;;;6.75;;
31402;SDS011;18039;52.188;21.024;2022-10-04T21:12:01;18.95;;;7.53;;
31402;SDS011;18039;52.188;21.024;2022-10-04T21:14:33;15.38;;;7.82;;
31402;SDS011;18039;52.188;21.024;2022-10-04T21:17:03;18.35;;;7.47;;
31402;SDS011;18039;52.188;21.024;2022-10-04T21:19:50;14.38;;;8.75;;
31402;SDS011;18039;52.188;21.024;2022-10-04T21:30:15;15.48;;;6.97;;
31402;SDS011;18039;52.188;21.024;2022-10-04T21:32:43;16.45;;;6.88;;
31402;SDS011;18039;52.188;21.024;2022-10-04T21:35:10;15.32;;;7.32;;
31402;SDS011;18039;52.188;21.024;2022-10-04T21:37:38;16.30;;;7.75;;
31402;SDS011;18039;52.188;21.024;2022-10-04T21:40:05;17.52;;;7.43;;
31402;SDS011;18039;52.188;21.024;2022-10-04T21:42:33;15.63;;;7.82;;
31402;SDS011;18039;52.188;21.024;2022-10-04T21:45:00;17.00;;;7.30;;
31402;SDS011;18039;52.188;21.024;2022-10-04T21:47:27;18.00;;;7.45;;
31402;SDS011;18039;52.188;21.024;2022-10-04T21:49:54;27.45;;;8.30;;
31402;SDS011;18039;52.188;21.024;2022-10-04T21:52:21;15.27;;;7.63;;
31402;SDS011;18039;52.188;21.024;2022-10-04T21:54:48;16.75;;;7.43;;
31402;SDS011;18039;52.188;21.024;2022-10-04T21:57:15;25.98;;;7.38;;
31402;SDS011;18039;52.188;21.024;2022-10-04T21:59:42;15.02;;;6.88;;
31402;SDS011;18039;52.188;21.024;2022-10-04T22:02:09;16.95;;;7.88;;
31402;SDS011;18039;52.188;21.024;2022-10-04T22:04:36;14.57;;;7.15;;
31402;SDS011;18039;52.188;21.024;2022-10-04T22:07:04;17.13;;;7.88;;
31402;SDS011;18039;52.188;21.024;2022-10-04T22:09:31;14.45;;;7.45;;
31402;SDS011;18039;52.188;21.024;2022-10-04T22:11:59;19.55;;;8.40;;
31402;SDS011;18039;52.188;21.024;2022-10-04T22:14:26;17.60;;;8.00;;
31402;SDS011;18039;52.188;21.024;2022-10-04T22:16:53;19.95;;;8.43;;
31402;SDS011;18039;52.188;21.024;2022-10-04T22:19:20;19.50;;;9.68;;
31402;SDS011;18039;52.188;21.024;2022-10-04T22:21:47;18.65;;;8.98;;
31402;SDS011;18039;52.188;21.024;2022-10-04T22:24:15;18.63;;;8.70;;
31402;SDS011;18039;52.188;21.024;2022-10-04T22:26:44;17.27;;;9.50;;
31402;SDS011;18039;52.188;21.024;2022-10-04T22:29:13;20.60;;;10.40;;
31402;SDS011;18039;52.188;21.024;2022-10-04T22:31:48;24.55;;;10.25;;
31402;SDS011;18039;52.188;21.024;2022-10-04T22:34:17;21.25;;;9.77;;
31402;SDS011;18039;52.188;21.024;2022-10-04T22:36:46;17.52;;;10.27;;
31402;SDS011;18039;52.188;21.024;2022-10-04T22:39:16;21.58;;;11.90;;
31402;SDS011;18039;52.188;21.024;2022-10-04T22:41:55;25.48;;;12.27;;
31402;SDS011;18039;52.188;21.024;2022-10-04T22:44:36;22.42;;;11.75;;
31402;SDS011;18039;52.188;21.024;2022-10-04T22:47:06;24.67;;;12.20;;
31402;SDS011;18039;52.188;21.024;2022-10-04T22:49:38;24.65;;;12.95;;
31402;SDS011;18039;52.188;21.024;2022-10-04T22:54:46;22.67;;;12.95;;
31402;SDS011;18039;52.188;21.024;2022-10-04T22:57:16;19.55;;;12.10;;
31402;SDS011;18039;52.188;21.024;2022-10-04T22:59:48;19.48;;;11.68;;
31402;SDS011;18039;52.188;21.024;2022-10-04T23:02:18;21.05;;;11.77;;
31402;SDS011;18039;52.188;21.024;2022-10-04T23:04:51;19.08;;;10.38;;
31402;SDS011;18039;52.188;21.024;2022-10-04T23:07:20;20.08;;;10.65;;
31402;SDS011;18039;52.188;21.024;2022-10-04T23:09:47;17.08;;;9.25;;
31402;SDS011;18039;52.188;21.024;2022-10-04T23:12:15;17.77;;;9.57;;
31402;SDS011;18039;52.188;21.024;2022-10-04T23:14:42;21.48;;;9.30;;
31402;SDS011;18039;52.188;21.024;2022-10-04T23:17:16;18.38;;;8.93;;
31402;SDS011;18039;52.188;21.024;2022-10-04T23:19:51;21.92;;;9.02;;
31402;SDS011;18039;52.188;21.024;2022-10-04T23:22:21;15.85;;;7.72;;
31402;SDS011;18039;52.188;21.024;2022-10-04T23:24:54;15.70;;;8.27;;
31402;SDS011;18039;52.188;21.024;2022-10-04T23:27:22;14.43;;;7.82;;
31402;SDS011;18039;52.188;21.024;2022-10-04T23:29:52;17.25;;;7.35;;
31402;SDS011;18039;52.188;21.024;2022-10-04T23:32:28;14.65;;;7.32;;
31402;SDS011;18039;52.188;21.024;2022-10-04T23:34:58;14.57;;;7.30;;
31402;SDS011;18039;52.188;21.024;2022-10-04T23:37:29;13.88;;;6.97;;
31402;SDS011;18039;52.188;21.024;2022-10-04T23:39:58;17.45;;;8.07;;
31402;SDS011;18039;52.188;21.024;2022-10-04T23:42:26;17.08;;;7.50;;
31402;SDS011;18039;52.188;21.024;2022-10-04T23:44:58;24.75;;;7.28;;
31402;SDS011;18039;52.188;21.024;2022-10-04T23:47:34;19.45;;;8.07;;
31402;SDS011;18039;52.188;21.024;2022-10-04T23:52:49;18.23;;;7.40;;
31402;SDS011;18039;52.188;21.024;2022-10-04T23:55:21;18.17;;;7.80;;
31402;SDS011;18039;52.188;21.024;2022-10-04T23:57:49;19.67;;;8.07;;
